createdAt,value
2023-04-13T00:01:38.562Z,100051.44
2023-04-13T00:04:43.277Z,100055.56
2023-04-13T00:07:45.737Z,100048.31
2023-04-13T00:10:52.083Z,100048.72
2023-04-13T00:13:55.449Z,100048.72
2023-04-13T00:16:58.006Z,100039.72
2023-04-13T00:20:00.692Z,100040.38
2023-04-13T00:23:03.412Z,100043.91
2023-04-13T00:26:05.981Z,100037.91
2023-04-13T00:29:08.471Z,100045.22
2023-04-13T00:32:11.462Z,100052.16
2023-04-13T00:35:19.367Z,100048.78
2023-04-13T00:38:24.225Z,100064.44
2023-04-13T00:41:28.829Z,100056.75
2023-04-13T00:44:30.992Z,100051.94
2023-04-13T00:47:36.971Z,100047.75
2023-04-13T00:50:40.248Z,100037.31
2023-04-13T00:53:43.470Z,100050.25
2023-04-13T00:56:45.738Z,100037.72
2023-04-13T00:59:49.613Z,100039.41
2023-04-13T01:02:53.962Z,100049.63
2023-04-13T01:06:07.353Z,100058.81
2023-04-13T01:09:15.458Z,100051.72
2023-04-13T01:12:19.663Z,100045.84
2023-04-13T01:15:23.794Z,100060.88
2023-04-13T01:18:27.849Z,100054.44
2023-04-13T01:21:32.999Z,100056.97
2023-04-13T01:24:46.869Z,100054.06
2023-04-13T01:27:55.567Z,100063.84
2023-04-13T01:30:58.843Z,100068.63
2023-04-13T01:34:02.260Z,100070.31
2023-04-13T01:37:04.454Z,100070.34
2023-04-13T01:40:13.847Z,100058.03
2023-04-13T01:43:25.289Z,100073.44
2023-04-13T01:46:46.571Z,100074.91
2023-04-13T01:50:28.478Z,100078.03
2023-04-13T01:53:43.170Z,100079.28
2023-04-13T01:56:49.400Z,100082.81
2023-04-13T01:59:52.168Z,100082.16
2023-04-13T02:02:56.659Z,100082.19
2023-04-13T02:05:58.945Z,100080.09
2023-04-13T02:09:01.506Z,100083.88
2023-04-13T02:12:03.765Z,100078.84
2023-04-13T02:15:06.894Z,100087.19
2023-04-13T02:18:12.267Z,100080.94
2023-04-13T02:21:15.031Z,100085.34
2023-04-13T02:24:17.238Z,100080.13
2023-04-13T02:27:20.512Z,100089.31
2023-04-13T02:30:23.623Z,100087.84
2023-04-13T02:33:30.412Z,100081.59
2023-04-13T02:36:33.167Z,100083.25
2023-04-13T02:39:41.304Z,100088.00
2023-04-13T02:42:44.232Z,100086.78
2023-04-13T02:45:47.451Z,100086.59
2023-04-13T02:48:51.648Z,100087.59
2023-04-13T02:51:54.298Z,100089.91
2023-04-13T02:55:06.985Z,100095.34
2023-04-13T02:58:35.585Z,100092.44
2023-04-13T03:01:43.546Z,100091.78
2023-04-13T03:04:47.773Z,100090.94
2023-04-13T03:07:51.236Z,100095.75
2023-04-13T03:10:54.966Z,100100.97
2023-04-13T03:13:59.239Z,100098.91
2023-04-13T03:17:01.898Z,100092.25
2023-04-13T03:20:13.558Z,100098.91
2023-04-13T03:23:23.833Z,100101.41
2023-04-13T03:26:27.397Z,100105.81
2023-04-13T03:29:32.476Z,100107.66
2023-04-13T03:32:34.916Z,100105.56
2023-04-13T03:35:37.153Z,100099.09
2023-04-13T03:38:43.198Z,100103.28
2023-04-13T03:41:46.265Z,100099.72
2023-04-13T03:44:48.301Z,100113.69
2023-04-13T03:47:51.942Z,100110.56
2023-04-13T03:50:57.500Z,100112.00
2023-04-13T03:54:06.872Z,100117.22
2023-04-13T03:57:10.204Z,100124.13
2023-04-13T04:00:14.473Z,100128.72
2023-04-13T04:03:25.876Z,100127.91
2023-04-13T04:06:39.515Z,100141.22
2023-04-13T04:09:46.701Z,100143.31
2023-04-13T04:12:51.880Z,100142.88
2023-04-13T04:15:54.842Z,100143.75
2023-04-13T04:18:58.382Z,100147.47
2023-04-13T04:22:30.236Z,100155.44
2023-04-13T04:25:34.795Z,100155.78
2023-04-13T04:28:40.375Z,100152.63
2023-04-13T04:31:46.203Z,100166.19
2023-04-13T04:34:53.079Z,100169.03
2023-04-13T04:37:58.235Z,100166.63
2023-04-13T04:41:02.366Z,100168.75
2023-04-13T04:44:08.973Z,100170.00
2023-04-13T04:47:20.084Z,100176.09
2023-04-13T04:50:50.602Z,100169.31
2023-04-13T04:53:58.093Z,100166.78
2023-04-13T04:57:10.568Z,100175.59
2023-04-13T05:00:18.184Z,100173.38
2023-04-13T05:03:34.337Z,100175.50
2023-04-13T05:07:04.268Z,100185.38
2023-04-13T05:10:11.793Z,100185.78
2023-04-13T05:13:19.388Z,100195.72
2023-04-13T05:16:31.969Z,100193.34
2023-04-13T05:19:40.125Z,100183.84
2023-04-13T05:22:51.088Z,100195.53
2023-04-13T05:25:58.790Z,100189.72
2023-04-13T05:29:04.922Z,100181.66
2023-04-13T05:32:10.713Z,100189.66
2023-04-13T05:35:13.318Z,100187.63
2023-04-13T05:38:46.230Z,100199.19
2023-04-13T05:41:51.402Z,100197.00
2023-04-13T05:44:55.496Z,100199.94
2023-04-13T05:47:57.774Z,100196.94
2023-04-13T05:51:03.892Z,100192.00
2023-04-13T05:54:14.015Z,100204.13
2023-04-13T05:57:23.295Z,100208.38
2023-04-13T06:00:28.835Z,100203.81
2023-04-13T06:03:39.037Z,100200.28
2023-04-13T06:06:45.361Z,100203.97
2023-04-13T06:09:52.440Z,100193.44
2023-04-13T06:12:55.806Z,100203.00
2023-04-13T06:15:58.296Z,100199.91
2023-04-13T06:19:02.405Z,100190.63
2023-04-13T06:22:08.363Z,100200.31
2023-04-13T06:25:14.141Z,100199.59
2023-04-13T06:28:19.188Z,100197.75
2023-04-13T06:31:28.039Z,100207.78
2023-04-13T06:34:37.315Z,100216.72
2023-04-13T06:37:45.518Z,100211.41
2023-04-13T06:40:52.791Z,100219.81
2023-04-13T06:43:57.040Z,100224.56
2023-04-13T06:47:09.295Z,100241.31
2023-04-13T06:50:14.290Z,100227.53
2023-04-13T06:53:18.592Z,100224.94
2023-04-13T06:56:21.719Z,100237.25
2023-04-13T06:59:32.180Z,100235.25
2023-04-13T07:02:43.592Z,100239.94
2023-04-13T07:05:48.546Z,100235.25
2023-04-13T07:08:53.764Z,100232.63
2023-04-13T07:12:03.955Z,100237.59
2023-04-13T07:15:18.095Z,100243.47
2023-04-13T07:18:22.674Z,100236.53
2023-04-13T07:21:30.032Z,100239.94
2023-04-13T07:24:38.647Z,100231.69
2023-04-13T07:27:44.771Z,100232.88
2023-04-13T07:30:47.802Z,100237.75
2023-04-13T07:33:51.143Z,100228.66
2023-04-13T07:36:58.769Z,100228.16
2023-04-13T07:40:01.208Z,100245.94
2023-04-13T07:43:06.502Z,100244.66
2023-04-13T07:46:14.223Z,100243.44
2023-04-13T07:49:20.548Z,100245.41
2023-04-13T07:52:23.330Z,100240.28
2023-04-13T07:55:28.251Z,100233.44
2023-04-13T07:58:31.496Z,100232.25
2023-04-13T08:01:37.335Z,100237.31
2023-04-13T08:04:40.252Z,100231.09
2023-04-13T08:07:49.240Z,100232.47
2023-04-13T08:10:52.173Z,100229.81
2023-04-13T08:14:24.231Z,100225.28
2023-04-13T08:18:41.660Z,100218.78
2023-04-13T08:21:53.986Z,100224.44
2023-04-13T08:24:58.133Z,100234.56
2023-04-13T08:28:05.615Z,100235.72
2023-04-13T08:31:13.308Z,100241.94
2023-04-13T08:34:23.653Z,100228.22
2023-04-13T08:37:29.864Z,100236.78
2023-04-13T08:40:38.673Z,100232.03
2023-04-13T08:43:47.023Z,100230.34
2023-04-13T08:46:52.579Z,100228.75
2023-04-13T08:50:02.868Z,100231.84
2023-04-13T08:53:18.447Z,100232.03
2023-04-13T08:56:31.049Z,100232.41
2023-04-13T08:59:43.847Z,100229.13
2023-04-13T09:03:03.915Z,100226.97
2023-04-13T09:06:12.772Z,100230.59
2023-04-13T09:09:15.728Z,100233.75
2023-04-13T09:12:18.267Z,100230.78
2023-04-13T09:15:21.060Z,100234.56
2023-04-13T09:18:50.875Z,100224.75
2023-04-13T09:31:11.191Z,100224.53
2023-04-13T09:34:14.853Z,100223.75
2023-04-13T09:37:18.861Z,100218.63
2023-04-13T09:40:22.814Z,100213.38
2023-04-13T09:43:36.891Z,100212.50
2023-04-13T09:46:40.230Z,100209.13
2023-04-13T09:49:44.024Z,100212.22
2023-04-13T09:52:51.621Z,100215.78
2023-04-13T09:56:00.552Z,100206.59
2023-04-13T09:59:02.805Z,100206.09
2023-04-13T10:02:06.191Z,100221.66
2023-04-13T10:05:13.400Z,100216.66
2023-04-13T10:08:21.655Z,100224.19
2023-04-13T10:11:29.976Z,100215.19
2023-04-13T10:14:36.267Z,100223.97
2023-04-13T10:18:19.949Z,100228.19
2023-04-13T10:21:22.582Z,100224.66
2023-04-13T10:24:25.673Z,100225.84
2023-04-13T10:27:28.566Z,100226.22
2023-04-13T10:30:31.061Z,100225.28
2023-04-13T10:33:34.257Z,100218.41
2023-04-13T10:36:47.416Z,100210.97
2023-04-13T10:40:00.939Z,100225.44
2023-04-13T10:43:08.724Z,100216.69
2023-04-13T10:46:16.174Z,100221.47
2023-04-13T10:49:18.408Z,100227.47
2023-04-13T10:52:21.478Z,100218.53
2023-04-13T10:55:44.997Z,100231.03
2023-04-13T10:58:56.430Z,100209.06
2023-04-13T11:02:09.039Z,100212.81
2023-04-13T11:05:20.895Z,100224.44
2023-04-13T11:08:28.918Z,100231.97
2023-04-13T11:11:31.573Z,100216.69
2023-04-13T11:14:36.240Z,100221.91
2023-04-13T11:17:38.477Z,100220.78
2023-04-13T11:20:43.815Z,100225.34
2023-04-13T11:23:53.830Z,100227.91
2023-04-13T11:26:58.192Z,100221.91
2023-04-13T11:30:05.987Z,100219.03
2023-04-13T11:33:10.126Z,100221.56
2023-04-13T11:36:17.553Z,100227.28
2023-04-13T11:39:22.565Z,100218.94
2023-04-13T11:42:27.956Z,100223.50
2023-04-13T11:45:30.656Z,100220.19
2023-04-13T11:48:34.056Z,100230.69
2023-04-13T11:51:41.280Z,100233.41
2023-04-13T11:54:44.917Z,100230.06
2023-04-13T11:57:58.860Z,100231.47
2023-04-13T12:01:14.045Z,100230.41
2023-04-13T12:04:20.112Z,100231.03
2023-04-13T12:07:23.716Z,100228.94
2023-04-13T12:10:43.558Z,100233.22
2023-04-13T12:14:07.279Z,100229.81
2023-04-13T12:20:21.304Z,100230.63
2023-04-13T12:23:27.919Z,100229.13
2023-04-13T12:29:41.658Z,100237.00
2023-04-13T12:32:54.751Z,100228.75
2023-04-13T12:35:57.623Z,100222.09
2023-04-13T12:39:01.271Z,100220.22
2023-04-13T12:42:03.882Z,100218.94
2023-04-13T12:45:11.377Z,100219.38
2023-04-13T12:48:13.510Z,100214.09
2023-04-13T12:51:15.827Z,100227.41
2023-04-13T12:54:18.429Z,100224.06
2023-04-13T12:57:20.485Z,100220.69
2023-04-13T13:00:36.019Z,100222.91
2023-04-13T13:03:39.199Z,100230.25
2023-04-13T13:10:30.000Z,100225.44
2023-04-13T13:13:57.465Z,100224.81
2023-04-13T13:17:01.274Z,100224.44
2023-04-13T13:20:27.892Z,100220.31
2023-04-13T13:23:30.411Z,100219.56
2023-04-13T13:27:00.301Z,100219.84
2023-04-13T13:30:05.193Z,100221.59
2023-04-13T13:33:08.517Z,100227.31
2023-04-13T13:36:14.652Z,100227.25
2023-04-13T13:39:23.560Z,100213.81
2023-04-13T13:42:32.447Z,100224.91
2023-04-13T13:45:43.047Z,100231.34
2023-04-13T13:48:46.605Z,100229.81
2023-04-13T13:52:13.427Z,100213.47
2023-04-13T13:55:23.035Z,100217.97
2023-04-13T13:58:25.869Z,100222.34
2023-04-13T14:01:28.443Z,100226.88
2023-04-13T14:04:36.456Z,100228.75
2023-04-13T14:07:44.813Z,100232.78
2023-04-13T14:10:49.604Z,100222.72
2023-04-13T14:13:55.672Z,100220.69
2023-04-13T14:17:07.836Z,100223.19
2023-04-13T14:20:12.286Z,100220.66
2023-04-13T14:23:14.669Z,100214.31
2023-04-13T14:26:21.055Z,100215.66
2023-04-13T14:29:24.470Z,100216.41
2023-04-13T14:32:29.934Z,100220.84
2023-04-13T14:35:32.701Z,100218.69
2023-04-13T14:38:35.472Z,100238.81
2023-04-13T14:41:39.262Z,100233.13
2023-04-13T14:44:42.120Z,100234.13
2023-04-13T14:47:45.263Z,100235.91
2023-04-13T14:50:49.735Z,100238.19
2023-04-13T14:53:56.581Z,100228.31
2023-04-13T14:57:03.470Z,100227.47
2023-04-13T15:00:39.244Z,100223.47
2023-04-13T15:03:41.845Z,100232.16
2023-04-13T15:06:47.927Z,100239.44
2023-04-13T15:09:53.821Z,100237.22
2023-04-13T15:12:56.951Z,100238.84
2023-04-13T15:15:59.290Z,100243.16
2023-04-13T15:19:01.967Z,100243.22
2023-04-13T15:22:04.465Z,100235.53
2023-04-13T15:25:07.130Z,100245.41
2023-04-13T15:28:11.268Z,100250.38
2023-04-13T15:31:15.987Z,100237.09
2023-04-13T15:34:18.129Z,100258.03
2023-04-13T15:37:20.548Z,100261.81
2023-04-13T15:40:27.665Z,100261.22
2023-04-13T15:43:30.549Z,100247.59
2023-04-13T15:46:32.869Z,100256.47
2023-04-13T15:49:37.140Z,100252.28
2023-04-13T15:52:40.012Z,100256.28
2023-04-13T15:55:43.129Z,100258.41
2023-04-13T15:58:47.512Z,100253.94
2023-04-13T16:01:50.552Z,100259.53
2023-04-13T16:04:54.178Z,100260.53
2023-04-13T16:07:56.745Z,100256.16
2023-04-13T16:11:02.570Z,100253.28
2023-04-13T16:14:07.557Z,100262.59
2023-04-13T16:17:10.551Z,100258.63
2023-04-13T16:20:15.418Z,100263.63
2023-04-13T16:23:18.989Z,100265.75
2023-04-13T16:26:23.302Z,100266.59
2023-04-13T16:29:27.244Z,100279.66
2023-04-13T16:32:33.964Z,100272.69
2023-04-13T16:35:37.016Z,100275.47
2023-04-13T16:38:43.810Z,100276.63
2023-04-13T16:41:48.537Z,100285.47
2023-04-13T16:44:50.643Z,100278.84
2023-04-13T16:47:53.815Z,100287.44
2023-04-13T16:51:02.693Z,100292.69
2023-04-13T16:54:18.317Z,100287.91
2023-04-13T16:57:20.857Z,100296.69
2023-04-13T17:00:23.357Z,100304.63
2023-04-13T17:03:54.858Z,100307.25
2023-04-13T17:07:07.460Z,100300.59
2023-04-13T17:10:15.188Z,100305.25
2023-04-13T17:13:26.175Z,100320.94
2023-04-13T17:16:38.018Z,100313.31
2023-04-13T17:19:42.009Z,100330.03
2023-04-13T17:22:48.644Z,100338.63
2023-04-13T17:25:56.803Z,100327.81
2023-04-13T17:29:02.545Z,100345.34
2023-04-13T17:32:06.205Z,100351.88
2023-04-13T17:35:11.456Z,100356.69
2023-04-13T17:38:23.260Z,100356.28
2023-04-13T17:41:27.605Z,100358.19
2023-04-13T17:44:35.257Z,100368.47
2023-04-13T17:47:40.436Z,100369.09
2023-04-13T17:50:42.626Z,100365.97
2023-04-13T17:53:44.810Z,100379.16
2023-04-13T17:56:47.972Z,100382.72
2023-04-13T17:59:50.048Z,100397.31
2023-04-13T18:02:52.869Z,100402.34
2023-04-13T18:05:56.109Z,100403.22
2023-04-13T18:08:58.504Z,100410.13
2023-04-13T18:12:00.994Z,100398.84
2023-04-13T18:15:03.655Z,100408.25
2023-04-13T18:18:06.138Z,100405.97
2023-04-13T18:21:08.494Z,100405.13
2023-04-13T18:24:10.992Z,100402.22
2023-04-13T18:42:40.934Z,100401.59
2023-04-13T18:45:48.640Z,100401.34
2023-04-13T18:48:55.091Z,100412.22
2023-04-13T18:51:57.153Z,100417.88
2023-04-13T18:54:59.526Z,100424.56
2023-04-13T18:58:02.995Z,100423.13
2023-04-13T19:01:55.372Z,100413.91
2023-04-13T19:04:58.717Z,100414.13
2023-04-13T19:08:04.046Z,100420.81
2023-04-13T19:12:03.868Z,100422.06
2023-04-13T19:15:10.271Z,100423.13
2023-04-13T19:18:12.760Z,100424.78
2023-04-13T19:21:40.973Z,100433.56
2023-04-13T19:24:43.934Z,100431.47
2023-04-13T19:32:11.073Z,100417.88
2023-04-13T19:45:25.558Z,100425.34
2023-04-13T19:49:13.031Z,100418.03
2023-04-13T19:52:59.684Z,100412.38
2023-04-13T19:56:30.776Z,100428.66
2023-04-13T20:07:52.400Z,100425.94
2023-04-13T20:11:01.364Z,100412.97
2023-04-13T20:14:05.795Z,100430.50
2023-04-13T20:17:16.444Z,100422.78
2023-04-13T20:20:26.967Z,100431.09
2023-04-13T20:23:35.870Z,100435.91
2023-04-13T20:26:38.165Z,100440.28
2023-04-13T20:29:42.009Z,100439.88
2023-04-13T20:32:50.152Z,100431.50
2023-04-13T20:35:55.034Z,100437.75
2023-04-13T20:39:03.066Z,100436.66
2023-04-13T20:42:09.546Z,100428.34
2023-04-13T20:45:15.178Z,100442.50
2023-04-13T20:51:49.906Z,100446.88
2023-04-13T20:55:14.870Z,100440.81
2023-04-13T20:58:18.942Z,100434.56
2023-04-13T21:01:30.489Z,100416.41
2023-04-13T21:04:35.092Z,100425.34
2023-04-13T21:07:42.176Z,100427.88
2023-04-13T21:10:47.879Z,100426.66
2023-04-13T21:13:52.452Z,100425.34
2023-04-13T21:16:55.635Z,100431.22
2023-04-13T21:19:57.997Z,100426.63
2023-04-13T21:23:01.426Z,100430.56
2023-04-13T21:26:04.815Z,100440.94
2023-04-13T21:29:16.741Z,100435.97
2023-04-13T21:32:18.998Z,100436.59
2023-04-13T21:35:21.182Z,100450.13
2023-04-13T21:38:23.329Z,100447.19
2023-04-13T21:41:25.380Z,100442.75
2023-04-13T21:44:29.892Z,100449.63
2023-04-13T21:47:32.524Z,100455.69
2023-04-13T21:50:34.533Z,100456.44
2023-04-13T21:53:37.196Z,100457.69
2023-04-13T21:56:39.271Z,100449.91
2023-04-13T21:59:41.455Z,100453.31
2023-04-13T22:02:43.922Z,100450.59
2023-04-13T22:05:46.240Z,100458.03
2023-04-13T22:08:48.337Z,100453.03
2023-04-13T22:11:51.582Z,100446.56
2023-04-13T22:14:54.329Z,100453.00
2023-04-13T22:17:56.754Z,100450.06
2023-04-13T22:21:02.365Z,100450.47
2023-04-13T22:24:04.612Z,100447.56
2023-04-13T22:27:06.863Z,100445.91
2023-04-13T22:30:09.476Z,100426.09
2023-04-13T22:33:11.615Z,100431.50
2023-04-13T22:36:19.561Z,100424.22
2023-04-13T22:39:22.017Z,100422.94
2023-04-13T22:42:24.168Z,100425.66
2023-04-13T22:45:26.405Z,100425.16
2023-04-13T22:48:29.302Z,100422.44
2023-04-13T22:51:38.769Z,100416.25
2023-04-13T22:54:40.863Z,100418.53
2023-04-13T22:57:43.047Z,100414.53
2023-04-13T23:00:45.175Z,100411.78
2023-04-13T23:03:47.523Z,100409.41
2023-04-13T23:06:53.789Z,100415.22
2023-04-13T23:09:56.168Z,100407.03
2023-04-13T23:12:59.145Z,100406.22
2023-04-13T23:16:01.642Z,100406.97
2023-04-13T23:19:03.941Z,100409.53
2023-04-13T23:22:06.210Z,100411.19
2023-04-13T23:25:08.667Z,100406.59
2023-04-13T23:28:10.812Z,100413.72
2023-04-13T23:31:13.309Z,100413.28
2023-04-13T23:34:15.559Z,100408.69
2023-04-13T23:37:17.574Z,100412.78
2023-04-13T23:40:19.732Z,100407.75
2023-04-13T23:43:22.838Z,100402.63
2023-04-13T23:46:25.313Z,100402.22
2023-04-13T23:49:27.345Z,100405.50
2023-04-13T23:52:29.450Z,100410.66
2023-04-13T23:55:31.428Z,100411.56
2023-04-13T23:58:33.562Z,100404.88
